sensor_id;sensor_type;location;lat;lon;timestamp;pressure;altitude;pressure_sealevel;temperature;humidity
5872;BME280;2962;51.312;7.378;2023-05-03T00:00:41;98523.59;;;3.45;100.00
5872;BME280;2962;51.312;7.378;2023-05-03T00:03:06;98518.22;;;3.45;100.00
5872;BME280;2962;51.312;7.378;2023-05-03T00:05:32;98513.88;;;3.30;100.00
5872;BME280;2962;51.312;7.378;2023-05-03T00:07:57;98527.97;;;3.40;100.00
5872;BME280;2962;51.312;7.378;2023-05-03T00:10:23;98516.97;;;3.23;100.00
5872;BME280;2962;51.312;7.378;2023-05-03T00:12:49;98520.50;;;3.18;100.00
5872;BME280;2962;51.312;7.378;2023-05-03T00:15:14;98513.53;;;3.17;100.00
5872;BME280;2962;51.312;7.378;2023-05-03T00:17:39;98517.97;;;3.27;100.00
5872;BME280;2962;51.312;7.378;2023-05-03T00:20:05;98516.78;;;3.33;100.00
5872;BME280;2962;51.312;7.378;2023-05-03T00:22:32;98506.25;;;3.18;100.00
5872;BME280;2962;51.312;7.378;2023-05-03T00:25:01;98517.53;;;3.20;100.00
5872;BME280;2962;51.312;7.378;2023-05-03T00:27:27;98485.88;;;3.12;100.00
5872;BME280;2962;51.312;7.378;2023-05-03T00:29:52;98514.53;;;3.22;100.00
5872;BME280;2962;51.312;7.378;2023-05-03T00:32:19;98511.63;;;3.18;100.00
5872;BME280;2962;51.312;7.378;2023-05-03T00:34:44;98504.75;;;3.12;100.00
5872;BME280;2962;51.312;7.378;2023-05-03T00:37:10;98501.53;;;3.10;100.00
5872;BME280;2962;51.312;7.378;2023-05-03T00:39:35;98490.53;;;3.06;100.00
5872;BME280;2962;51.312;7.378;2023-05-03T00:42:02;98488.81;;;3.15;100.00
5872;BME280;2962;51.312;7.378;2023-05-03T00:44:28;98500.13;;;3.31;100.00
5872;BME280;2962;51.312;7.378;2023-05-03T00:46:54;98500.19;;;3.26;100.00
5872;BME280;2962;51.312;7.378;2023-05-03T00:49:20;98500.38;;;3.16;100.00
5872;BME280;2962;51.312;7.378;2023-05-03T00:51:46;98496.34;;;3.13;100.00
5872;BME280;2962;51.312;7.378;2023-05-03T00:54:11;98502.25;;;3.15;100.00
5872;BME280;2962;51.312;7.378;2023-05-03T00:56:37;98493.97;;;3.12;100.00
5872;BME280;2962;51.312;7.378;2023-05-03T00:59:05;98513.31;;;3.14;100.00
5872;BME280;2962;51.312;7.378;2023-05-03T01:01:31;98511.72;;;3.13;100.00
5872;BME280;2962;51.312;7.378;2023-05-03T01:03:57;98500.59;;;3.01;100.00
5872;BME280;2962;51.312;7.378;2023-05-03T01:09:11;98520.03;;;2.98;100.00
5872;BME280;2962;51.312;7.378;2023-05-03T01:12:18;98517.81;;;3.00;100.00
5872;BME280;2962;51.312;7.378;2023-05-03T01:15:07;98520.38;;;2.91;100.00
5872;BME280;2962;51.312;7.378;2023-05-03T01:17:38;98528.91;;;2.79;100.00
5872;BME280;2962;51.312;7.378;2023-05-03T01:20:07;98517.13;;;2.75;100.00
5872;BME280;2962;51.312;7.378;2023-05-03T01:22:45;98506.06;;;2.58;100.00
5872;BME280;2962;51.312;7.378;2023-05-03T01:25:12;98515.94;;;2.62;100.00
5872;BME280;2962;51.312;7.378;2023-05-03T01:27:40;98521.09;;;2.59;100.00
5872;BME280;2962;51.312;7.378;2023-05-03T01:30:10;98523.06;;;2.53;100.00
5872;BME280;2962;51.312;7.378;2023-05-03T01:32:51;98518.28;;;2.50;100.00
5872;BME280;2962;51.312;7.378;2023-05-03T01:35:39;98517.97;;;2.52;100.00
5872;BME280;2962;51.312;7.378;2023-05-03T01:38:07;98524.44;;;2.51;100.00
5872;BME280;2962;51.312;7.378;2023-05-03T01:40:39;98501.72;;;2.38;100.00
5872;BME280;2962;51.312;7.378;2023-05-03T01:43:08;98513.81;;;2.40;100.00
5872;BME280;2962;51.312;7.378;2023-05-03T01:45:35;98523.66;;;2.50;100.00
5872;BME280;2962;51.312;7.378;2023-05-03T01:48:00;98528.59;;;2.62;100.00
5872;BME280;2962;51.312;7.378;2023-05-03T01:50:25;98528.00;;;2.65;100.00
5872;BME280;2962;51.312;7.378;2023-05-03T01:52:51;98523.44;;;2.47;100.00
5872;BME280;2962;51.312;7.378;2023-05-03T01:55:17;98530.50;;;2.37;100.00
5872;BME280;2962;51.312;7.378;2023-05-03T01:57:43;98526.53;;;2.35;100.00
5872;BME280;2962;51.312;7.378;2023-05-03T02:00:08;98516.97;;;2.24;100.00
5872;BME280;2962;51.312;7.378;2023-05-03T02:02:34;98535.00;;;2.23;100.00
5872;BME280;2962;51.312;7.378;2023-05-03T02:04:59;98517.03;;;2.18;100.00
5872;BME280;2962;51.312;7.378;2023-05-03T02:07:25;98535.50;;;2.25;100.00
5872;BME280;2962;51.312;7.378;2023-05-03T02:09:50;98537.69;;;2.23;100.00
5872;BME280;2962;51.312;7.378;2023-05-03T02:12:15;98524.59;;;2.16;100.00
5872;BME280;2962;51.312;7.378;2023-05-03T02:14:41;98532.31;;;2.23;100.00
5872;BME280;2962;51.312;7.378;2023-05-03T02:17:06;98533.91;;;2.24;100.00
5872;BME280;2962;51.312;7.378;2023-05-03T02:19:32;98527.28;;;2.16;100.00
5872;BME280;2962;51.312;7.378;2023-05-03T02:21:57;98534.47;;;2.21;100.00
5872;BME280;2962;51.312;7.378;2023-05-03T02:24:22;98536.38;;;2.20;100.00
5872;BME280;2962;51.312;7.378;2023-05-03T02:26:48;98532.53;;;2.27;100.00
5872;BME280;2962;51.312;7.378;2023-05-03T02:29:13;98538.59;;;2.37;100.00
5872;BME280;2962;51.312;7.378;2023-05-03T02:31:38;98555.19;;;2.44;100.00
5872;BME280;2962;51.312;7.378;2023-05-03T02:34:04;98551.38;;;2.45;100.00
5872;BME280;2962;51.312;7.378;2023-05-03T02:36:29;98538.25;;;2.44;100.00
5872;BME280;2962;51.312;7.378;2023-05-03T02:38:55;98556.78;;;2.45;100.00
5872;BME280;2962;51.312;7.378;2023-05-03T02:41:20;98558.97;;;2.43;100.00
5872;BME280;2962;51.312;7.378;2023-05-03T02:43:46;98564.97;;;2.35;100.00
5872;BME280;2962;51.312;7.378;2023-05-03T02:46:11;98562.41;;;2.25;100.00
5872;BME280;2962;51.312;7.378;2023-05-03T02:48:36;98554.91;;;2.22;100.00
5872;BME280;2962;51.312;7.378;2023-05-03T02:51:02;98562.47;;;2.20;100.00
5872;BME280;2962;51.312;7.378;2023-05-03T02:53:28;98546.44;;;2.10;100.00
5872;BME280;2962;51.312;7.378;2023-05-03T02:55:53;98555.28;;;2.10;100.00
5872;BME280;2962;51.312;7.378;2023-05-03T02:58:19;98550.16;;;2.14;100.00
5872;BME280;2962;51.312;7.378;2023-05-03T03:00:44;98547.06;;;2.02;100.00
5872;BME280;2962;51.312;7.378;2023-05-03T03:03:09;98557.19;;;2.10;100.00
5872;BME280;2962;51.312;7.378;2023-05-03T03:05:35;98552.91;;;2.09;100.00
5872;BME280;2962;51.312;7.378;2023-05-03T03:08:00;98543.19;;;2.13;100.00
5872;BME280;2962;51.312;7.378;2023-05-03T03:10:25;98546.38;;;2.15;100.00
5872;BME280;2962;51.312;7.378;2023-05-03T03:12:50;98538.91;;;2.12;100.00
5872;BME280;2962;51.312;7.378;2023-05-03T03:15:16;98548.63;;;2.32;100.00
5872;BME280;2962;51.312;7.378;2023-05-03T03:17:41;98543.50;;;2.30;100.00
5872;BME280;2962;51.312;7.378;2023-05-03T03:20:07;98536.06;;;2.22;100.00
5872;BME280;2962;51.312;7.378;2023-05-03T03:22:36;98532.31;;;2.23;100.00
5872;BME280;2962;51.312;7.378;2023-05-03T03:25:02;98522.13;;;2.20;100.00
5872;BME280;2962;51.312;7.378;2023-05-03T03:27:28;98533.38;;;2.22;100.00
5872;BME280;2962;51.312;7.378;2023-05-03T03:29:54;98530.13;;;2.25;100.00
5872;BME280;2962;51.312;7.378;2023-05-03T03:32:19;98532.31;;;2.23;100.00
5872;BME280;2962;51.312;7.378;2023-05-03T03:34:45;98535.28;;;2.22;100.00
5872;BME280;2962;51.312;7.378;2023-05-03T03:37:10;98529.44;;;2.14;100.00
5872;BME280;2962;51.312;7.378;2023-05-03T03:39:36;98528.75;;;2.04;100.00
5872;BME280;2962;51.312;7.378;2023-05-03T03:42:03;98523.84;;;2.11;100.00
5872;BME280;2962;51.312;7.378;2023-05-03T03:44:28;98514.81;;;2.02;100.00
5872;BME280;2962;51.312;7.378;2023-05-03T03:46:53;98508.88;;;2.05;100.00
5872;BME280;2962;51.312;7.378;2023-05-03T03:49:19;98527.06;;;2.13;100.00
5872;BME280;2962;51.312;7.378;2023-05-03T03:51:44;98517.63;;;2.15;100.00
5872;BME280;2962;51.312;7.378;2023-05-03T03:54:09;98499.13;;;2.09;100.00
5872;BME280;2962;51.312;7.378;2023-05-03T03:56:34;98521.56;;;2.23;100.00
5872;BME280;2962;51.312;7.378;2023-05-03T03:59:00;98524.84;;;2.15;100.00
5872;BME280;2962;51.312;7.378;2023-05-03T04:01:25;98525.44;;;2.12;100.00
5872;BME280;2962;51.312;7.378;2023-05-03T04:03:51;98512.81;;;2.12;100.00
5872;BME280;2962;51.312;7.378;2023-05-03T04:06:16;98504.06;;;2.02;100.00
5872;BME280;2962;51.312;7.378;2023-05-03T04:08:41;98529.84;;;2.03;100.00
5872;BME280;2962;51.312;7.378;2023-05-03T04:11:10;98522.88;;;2.02;100.00
5872;BME280;2962;51.312;7.378;2023-05-03T04:13:36;98512.63;;;2.04;100.00
5872;BME280;2962;51.312;7.378;2023-05-03T04:16:02;98520.66;;;2.09;100.00
5872;BME280;2962;51.312;7.378;2023-05-03T04:18:27;98512.25;;;2.15;100.00
5872;BME280;2962;51.312;7.378;2023-05-03T04:20:52;98511.31;;;2.25;100.00
5872;BME280;2962;51.312;7.378;2023-05-03T04:23:18;98508.63;;;2.25;100.00
5872;BME280;2962;51.312;7.378;2023-05-03T04:25:43;98500.47;;;2.30;100.00
5872;BME280;2962;51.312;7.378;2023-05-03T04:28:12;98503.47;;;2.29;100.00
5872;BME280;2962;51.312;7.378;2023-05-03T04:30:38;98492.03;;;2.18;100.00
5872;BME280;2962;51.312;7.378;2023-05-03T04:33:03;98493.28;;;2.26;100.00
5872;BME280;2962;51.312;7.378;2023-05-03T04:35:29;98487.84;;;2.31;100.00
5872;BME280;2962;51.312;7.378;2023-05-03T04:37:54;98476.06;;;2.27;100.00
5872;BME280;2962;51.312;7.378;2023-05-03T04:40:20;98481.84;;;2.39;100.00
5872;BME280;2962;51.312;7.378;2023-05-03T04:42:45;98480.44;;;2.41;100.00
5872;BME280;2962;51.312;7.378;2023-05-03T04:45:10;98492.66;;;2.53;100.00
5872;BME280;2962;51.312;7.378;2023-05-03T04:47:36;98493.19;;;2.55;100.00
5872;BME280;2962;51.312;7.378;2023-05-03T04:50:01;98504.16;;;2.58;100.00
5872;BME280;2962;51.312;7.378;2023-05-03T04:52:28;98505.09;;;2.67;100.00
5872;BME280;2962;51.312;7.378;2023-05-03T04:54:54;98504.19;;;2.77;100.00
5872;BME280;2962;51.312;7.378;2023-05-03T04:57:19;98505.03;;;2.73;100.00
5872;BME280;2962;51.312;7.378;2023-05-03T04:59:44;98518.25;;;2.69;100.00
5872;BME280;2962;51.312;7.378;2023-05-03T05:02:10;98521.63;;;2.80;100.00
5872;BME280;2962;51.312;7.378;2023-05-03T05:04:35;98524.31;;;2.99;100.00
5872;BME280;2962;51.312;7.378;2023-05-03T05:07:00;98531.59;;;2.98;100.00
5872;BME280;2962;51.312;7.378;2023-05-03T05:09:27;98528.44;;;3.10;100.00
5872;BME280;2962;51.312;7.378;2023-05-03T05:11:55;98520.91;;;3.12;100.00
5872;BME280;2962;51.312;7.378;2023-05-03T05:14:20;98537.41;;;3.24;100.00
5872;BME280;2962;51.312;7.378;2023-05-03T05:16:45;98537.31;;;3.29;100.00
5872;BME280;2962;51.312;7.378;2023-05-03T05:19:11;98525.66;;;3.34;100.00
5872;BME280;2962;51.312;7.378;2023-05-03T05:21:37;98532.94;;;3.33;100.00
5872;BME280;2962;51.312;7.378;2023-05-03T05:24:03;98515.84;;;3.24;100.00
5872;BME280;2962;51.312;7.378;2023-05-03T05:26:28;98539.38;;;3.51;100.00
5872;BME280;2962;51.312;7.378;2023-05-03T05:28:53;98531.88;;;3.48;100.00
5872;BME280;2962;51.312;7.378;2023-05-03T05:31:19;98532.69;;;3.49;100.00
5872;BME280;2962;51.312;7.378;2023-05-03T05:33:44;98530.72;;;3.54;100.00
5872;BME280;2962;51.312;7.378;2023-05-03T05:36:09;98537.81;;;3.64;100.00
5872;BME280;2962;51.312;7.378;2023-05-03T05:38:35;98549.44;;;3.78;100.00
5872;BME280;2962;51.312;7.378;2023-05-03T05:41:01;98545.56;;;3.84;100.00
5872;BME280;2962;51.312;7.378;2023-05-03T05:43:26;98542.78;;;3.89;100.00
5872;BME280;2962;51.312;7.378;2023-05-03T05:45:51;98557.25;;;3.94;100.00
5872;BME280;2962;51.312;7.378;2023-05-03T05:48:16;98560.63;;;3.99;100.00
5872;BME280;2962;51.312;7.378;2023-05-03T05:50:42;98563.97;;;4.10;100.00
5872;BME280;2962;51.312;7.378;2023-05-03T05:53:07;98560.19;;;4.25;100.00
5872;BME280;2962;51.312;7.378;2023-05-03T05:55:34;98563.56;;;4.30;100.00
5872;BME280;2962;51.312;7.378;2023-05-03T05:57:59;98575.47;;;4.29;100.00
5872;BME280;2962;51.312;7.378;2023-05-03T06:00:24;98575.16;;;4.45;100.00
5872;BME280;2962;51.312;7.378;2023-05-03T06:02:50;98582.56;;;4.53;100.00
5872;BME280;2962;51.312;7.378;2023-05-03T06:05:15;98580.66;;;4.67;100.00
5872;BME280;2962;51.312;7.378;2023-05-03T06:07:41;98576.25;;;4.71;100.00
5872;BME280;2962;51.312;7.378;2023-05-03T06:10:06;98574.53;;;4.75;100.00
5872;BME280;2962;51.312;7.378;2023-05-03T06:12:32;98576.53;;;4.83;100.00
5872;BME280;2962;51.312;7.378;2023-05-03T06:14:57;98569.84;;;4.81;100.00
5872;BME280;2962;51.312;7.378;2023-05-03T06:17:22;98577.56;;;5.10;100.00
5872;BME280;2962;51.312;7.378;2023-05-03T06:19:49;98583.16;;;5.13;100.00
5872;BME280;2962;51.312;7.378;2023-05-03T06:22:15;98581.16;;;5.19;100.00
5872;BME280;2962;51.312;7.378;2023-05-03T06:24:40;98580.34;;;5.19;100.00
5872;BME280;2962;51.312;7.378;2023-05-03T06:27:05;98599.09;;;5.37;100.00
5872;BME280;2962;51.312;7.378;2023-05-03T06:29:31;98594.88;;;5.45;100.00
5872;BME280;2962;51.312;7.378;2023-05-03T06:31:56;98589.75;;;5.57;100.00
5872;BME280;2962;51.312;7.378;2023-05-03T06:34:21;98598.69;;;5.67;100.00
5872;BME280;2962;51.312;7.378;2023-05-03T06:36:48;98596.09;;;5.84;100.00
5872;BME280;2962;51.312;7.378;2023-05-03T06:39:13;98587.75;;;5.94;100.00
5872;BME280;2962;51.312;7.378;2023-05-03T06:41:38;98598.38;;;6.13;100.00
5872;BME280;2962;51.312;7.378;2023-05-03T06:44:04;98593.19;;;6.25;100.00
5872;BME280;2962;51.312;7.378;2023-05-03T06:46:31;98586.22;;;6.33;100.00
5872;BME280;2962;51.312;7.378;2023-05-03T06:48:56;98586.13;;;6.47;100.00
5872;BME280;2962;51.312;7.378;2023-05-03T06:51:22;98574.34;;;6.51;100.00
5872;BME280;2962;51.312;7.378;2023-05-03T06:53:55;98576.34;;;6.77;100.00
5872;BME280;2962;51.312;7.378;2023-05-03T06:56:21;98588.47;;;6.97;100.00
5872;BME280;2962;51.312;7.378;2023-05-03T06:58:48;98584.31;;;6.99;100.00
5872;BME280;2962;51.312;7.378;2023-05-03T07:01:13;98573.66;;;7.03;100.00
5872;BME280;2962;51.312;7.378;2023-05-03T07:03:43;98574.94;;;7.14;100.00
5872;BME280;2962;51.312;7.378;2023-05-03T07:06:08;98584.06;;;7.27;100.00
5872;BME280;2962;51.312;7.378;2023-05-03T07:08:33;98589.16;;;7.46;100.00
5872;BME280;2962;51.312;7.378;2023-05-03T07:10:59;98592.34;;;7.65;100.00
5872;BME280;2962;51.312;7.378;2023-05-03T07:13:24;98576.84;;;7.66;100.00
5872;BME280;2962;51.312;7.378;2023-05-03T07:15:49;98584.59;;;8.02;100.00
5872;BME280;2962;51.312;7.378;2023-05-03T07:18:15;98585.66;;;8.18;100.00
5872;BME280;2962;51.312;7.378;2023-05-03T07:20:40;98590.09;;;8.40;100.00
5872;BME280;2962;51.312;7.378;2023-05-03T07:23:06;98576.97;;;8.33;100.00
5872;BME280;2962;51.312;7.378;2023-05-03T07:25:34;98585.84;;;8.13;100.00
5872;BME280;2962;51.312;7.378;2023-05-03T07:28:00;98585.78;;;8.39;100.00
5872;BME280;2962;51.312;7.378;2023-05-03T07:30:25;98581.41;;;8.55;100.00
5872;BME280;2962;51.312;7.378;2023-05-03T07:32:50;98570.47;;;8.35;100.00
5872;BME280;2962;51.312;7.378;2023-05-03T07:35:16;98579.72;;;8.72;100.00
5872;BME280;2962;51.312;7.378;2023-05-03T07:37:41;98566.13;;;8.72;100.00
5872;BME280;2962;51.312;7.378;2023-05-03T07:40:08;98560.75;;;8.63;100.00
5872;BME280;2962;51.312;7.378;2023-05-03T07:42:36;98554.91;;;9.03;100.00
5872;BME280;2962;51.312;7.378;2023-05-03T07:45:02;98564.50;;;8.79;100.00
5872;BME280;2962;51.312;7.378;2023-05-03T07:47:27;98561.59;;;8.85;100.00
5872;BME280;2962;51.312;7.378;2023-05-03T07:49:53;98562.59;;;9.01;100.00
5872;BME280;2962;51.312;7.378;2023-05-03T07:52:18;98564.41;;;9.39;100.00
5872;BME280;2962;51.312;7.378;2023-05-03T07:54:44;98561.63;;;9.26;100.00
5872;BME280;2962;51.312;7.378;2023-05-03T07:57:13;98555.84;;;9.07;100.00
5872;BME280;2962;51.312;7.378;2023-05-03T07:59:39;98555.84;;;9.28;100.00
5872;BME280;2962;51.312;7.378;2023-05-03T08:02:05;98555.03;;;9.07;100.00
5872;BME280;2962;51.312;7.378;2023-05-03T08:04:30;98554.22;;;9.15;100.00
5872;BME280;2962;51.312;7.378;2023-05-03T08:06:59;98546.09;;;9.06;100.00
5872;BME280;2962;51.312;7.378;2023-05-03T08:09:24;98550.88;;;9.09;100.00
5872;BME280;2962;51.312;7.378;2023-05-03T08:11:50;98552.06;;;9.20;100.00
5872;BME280;2962;51.312;7.378;2023-05-03T08:14:15;98554.44;;;9.43;100.00
5872;BME280;2962;51.312;7.378;2023-05-03T08:16:41;98548.19;;;9.63;100.00
5872;BME280;2962;51.312;7.378;2023-05-03T08:19:06;98549.28;;;9.95;100.00
5872;BME280;2962;51.312;7.378;2023-05-03T08:21:32;98553.09;;;10.15;100.00
5872;BME280;2962;51.312;7.378;2023-05-03T08:23:57;98546.41;;;10.25;100.00
5872;BME280;2962;51.312;7.378;2023-05-03T08:26:22;98555.69;;;10.24;100.00
5872;BME280;2962;51.312;7.378;2023-05-03T08:28:48;98555.75;;;10.03;100.00
5872;BME280;2962;51.312;7.378;2023-05-03T08:31:13;98550.28;;;10.48;100.00
5872;BME280;2962;51.312;7.378;2023-05-03T08:33:39;98548.81;;;10.39;100.00
5872;BME280;2962;51.312;7.378;2023-05-03T08:36:04;98546.22;;;10.55;100.00
5872;BME280;2962;51.312;7.378;2023-05-03T08:38:30;98544.63;;;10.78;100.00
5872;BME280;2962;51.312;7.378;2023-05-03T08:40:57;98537.59;;;11.17;100.00
5872;BME280;2962;51.312;7.378;2023-05-03T08:43:26;98539.72;;;10.84;100.00
5872;BME280;2962;51.312;7.378;2023-05-03T08:45:52;98538.97;;;11.23;100.00
5872;BME280;2962;51.312;7.378;2023-05-03T08:48:17;98522.66;;;10.87;100.00
5872;BME280;2962;51.312;7.378;2023-05-03T08:50:43;98536.19;;;10.95;100.00
5872;BME280;2962;51.312;7.378;2023-05-03T08:53:09;98531.31;;;10.89;100.00
5872;BME280;2962;51.312;7.378;2023-05-03T08:55:35;98540.97;;;10.74;100.00
5872;BME280;2962;51.312;7.378;2023-05-03T08:58:02;98544.78;;;11.10;100.00
5872;BME280;2962;51.312;7.378;2023-05-03T09:00:34;98552.25;;;11.25;100.00
5872;BME280;2962;51.312;7.378;2023-05-03T09:03:00;98545.09;;;11.61;100.00
5872;BME280;2962;51.312;7.378;2023-05-03T09:05:33;98560.47;;;11.53;100.00
5872;BME280;2962;51.312;7.378;2023-05-03T09:08:09;98554.34;;;10.91;100.00
5872;BME280;2962;51.312;7.378;2023-05-03T09:10:39;98547.44;;;10.45;100.00
5872;BME280;2962;51.312;7.378;2023-05-03T09:13:05;98541.09;;;10.53;100.00
5872;BME280;2962;51.312;7.378;2023-05-03T09:15:32;98541.16;;;11.06;100.00
5872;BME280;2962;51.312;7.378;2023-05-03T09:20:36;98537.28;;;12.03;100.00
5872;BME280;2962;51.312;7.378;2023-05-03T09:23:03;98532.00;;;12.26;100.00
5872;BME280;2962;51.312;7.378;2023-05-03T09:25:41;98535.13;;;12.60;100.00
5872;BME280;2962;51.312;7.378;2023-05-03T09:28:07;98538.25;;;12.93;100.00
5872;BME280;2962;51.312;7.378;2023-05-03T09:30:33;98541.66;;;12.55;100.00
5872;BME280;2962;51.312;7.378;2023-05-03T09:32:58;98530.97;;;11.87;100.00
5872;BME280;2962;51.312;7.378;2023-05-03T09:35:23;98546.06;;;11.68;100.00
5872;BME280;2962;51.312;7.378;2023-05-03T09:37:49;98541.94;;;11.74;100.00
5872;BME280;2962;51.312;7.378;2023-05-03T09:40:14;98526.19;;;11.84;100.00
5872;BME280;2962;51.312;7.378;2023-05-03T09:43:09;98526.69;;;12.17;100.00
5872;BME280;2962;51.312;7.378;2023-05-03T09:45:36;98532.19;;;12.84;100.00
5872;BME280;2962;51.312;7.378;2023-05-03T09:48:03;98529.75;;;12.63;100.00
5872;BME280;2962;51.312;7.378;2023-05-03T09:50:31;98527.84;;;12.83;100.00
5872;BME280;2962;51.312;7.378;2023-05-03T09:53:00;98534.75;;;12.77;100.00
5872;BME280;2962;51.312;7.378;2023-05-03T09:55:27;98534.06;;;12.80;100.00
5872;BME280;2962;51.312;7.378;2023-05-03T09:57:54;98514.41;;;13.29;100.00
5872;BME280;2962;51.312;7.378;2023-05-03T10:00:19;98516.28;;;12.90;100.00
5872;BME280;2962;51.312;7.378;2023-05-03T10:02:46;98513.50;;;12.70;100.00
5872;BME280;2962;51.312;7.378;2023-05-03T10:05:14;98516.28;;;13.25;100.00
5872;BME280;2962;51.312;7.378;2023-05-03T10:07:42;98517.94;;;13.30;100.00
5872;BME280;2962;51.312;7.378;2023-05-03T10:10:08;98526.97;;;12.79;100.00
5872;BME280;2962;51.312;7.378;2023-05-03T10:12:33;98511.81;;;13.36;100.00
5872;BME280;2962;51.312;7.378;2023-05-03T10:15:04;98506.69;;;13.54;100.00
5872;BME280;2962;51.312;7.378;2023-05-03T10:17:34;98520.16;;;13.63;100.00
5872;BME280;2962;51.312;7.378;2023-05-03T10:20:11;98509.78;;;13.53;100.00
5872;BME280;2962;51.312;7.378;2023-05-03T10:23:09;98511.19;;;13.85;100.00
5872;BME280;2962;51.312;7.378;2023-05-03T10:25:36;98501.34;;;14.04;100.00
5872;BME280;2962;51.312;7.378;2023-05-03T10:28:06;98495.06;;;13.38;100.00
5872;BME280;2962;51.312;7.378;2023-05-03T10:30:33;98486.44;;;13.01;100.00
5872;BME280;2962;51.312;7.378;2023-05-03T10:35:52;98485.88;;;13.92;100.00
5872;BME280;2962;51.312;7.378;2023-05-03T10:38:25;98492.97;;;14.65;100.00
5872;BME280;2962;51.312;7.378;2023-05-03T10:40:51;98473.44;;;15.31;100.00
5872;BME280;2962;51.312;7.378;2023-05-03T10:45:55;98475.53;;;16.19;100.00
5872;BME280;2962;51.312;7.378;2023-05-03T10:48:21;98462.31;;;15.91;100.00
5872;BME280;2962;51.312;7.378;2023-05-03T10:50:47;98486.75;;;16.51;100.00
5872;BME280;2962;51.312;7.378;2023-05-03T10:56:03;98480.09;;;16.04;100.00
5872;BME280;2962;51.312;7.378;2023-05-03T10:58:35;98496.94;;;15.99;100.00
5872;BME280;2962;51.312;7.378;2023-05-03T11:01:02;98480.31;;;16.29;100.00
5872;BME280;2962;51.312;7.378;2023-05-03T11:03:36;98475.88;;;16.18;100.00
5872;BME280;2962;51.312;7.378;2023-05-03T11:06:07;98480.06;;;16.52;100.00
5872;BME280;2962;51.312;7.378;2023-05-03T11:08:32;98474.56;;;16.01;100.00
5872;BME280;2962;51.312;7.378;2023-05-03T11:11:02;98477.41;;;15.71;100.00
5872;BME280;2962;51.312;7.378;2023-05-03T11:13:34;98468.03;;;15.38;100.00
5872;BME280;2962;51.312;7.378;2023-05-03T11:15:59;98471.97;;;15.07;100.00
5872;BME280;2962;51.312;7.378;2023-05-03T11:18:25;98471.34;;;15.54;100.00
5872;BME280;2962;51.312;7.378;2023-05-03T11:20:51;98469.78;;;15.53;100.00
5872;BME280;2962;51.312;7.378;2023-05-03T11:23:17;98468.09;;;15.11;100.00
5872;BME280;2962;51.312;7.378;2023-05-03T11:25:43;98462.16;;;15.39;100.00
5872;BME280;2962;51.312;7.378;2023-05-03T11:28:08;98466.22;;;15.90;100.00
5872;BME280;2962;51.312;7.378;2023-05-03T11:30:34;98467.53;;;16.55;100.00
5872;BME280;2962;51.312;7.378;2023-05-03T11:33:01;98452.09;;;17.02;100.00
5872;BME280;2962;51.312;7.378;2023-05-03T11:35:29;98451.09;;;17.49;100.00
5872;BME280;2962;51.312;7.378;2023-05-03T11:37:56;98454.50;;;17.14;94.54
5872;BME280;2962;51.312;7.378;2023-05-03T11:40:22;98448.38;;;17.56;100.00
5872;BME280;2962;51.312;7.378;2023-05-03T11:42:51;98442.81;;;17.46;92.20
5872;BME280;2962;51.312;7.378;2023-05-03T11:45:20;98454.50;;;17.18;97.07
5872;BME280;2962;51.312;7.378;2023-05-03T11:47:46;98451.19;;;17.81;96.60
5872;BME280;2962;51.312;7.378;2023-05-03T11:50:11;98451.97;;;18.64;83.17
5872;BME280;2962;51.312;7.378;2023-05-03T11:52:37;98447.63;;;18.74;76.35
5872;BME280;2962;51.312;7.378;2023-05-03T11:55:03;98445.25;;;18.72;83.88
5872;BME280;2962;51.312;7.378;2023-05-03T11:57:31;98451.00;;;19.21;90.60
5872;BME280;2962;51.312;7.378;2023-05-03T12:00:11;98451.97;;;18.28;80.55
5872;BME280;2962;51.312;7.378;2023-05-03T12:02:39;98459.84;;;18.55;73.88
5872;BME280;2962;51.312;7.378;2023-05-03T12:05:05;98455.09;;;18.63;79.06
5872;BME280;2962;51.312;7.378;2023-05-03T12:07:31;98451.13;;;18.89;81.52
5872;BME280;2962;51.312;7.378;2023-05-03T12:09:56;98458.91;;;19.19;88.23
5872;BME280;2962;51.312;7.378;2023-05-03T12:12:22;98456.81;;;19.44;82.72
5872;BME280;2962;51.312;7.378;2023-05-03T12:14:58;98444.88;;;18.06;75.90
5872;BME280;2962;51.312;7.378;2023-05-03T12:17:37;98445.69;;;17.85;90.87
5872;BME280;2962;51.312;7.378;2023-05-03T12:20:20;98442.13;;;18.31;78.69
5872;BME280;2962;51.312;7.378;2023-05-03T12:22:50;98445.25;;;18.47;86.94
5872;BME280;2962;51.312;7.378;2023-05-03T12:25:15;98438.84;;;19.00;85.45
5872;BME280;2962;51.312;7.378;2023-05-03T12:27:41;98432.69;;;19.52;82.38
5872;BME280;2962;51.312;7.378;2023-05-03T12:30:06;98435.06;;;18.19;80.63
5872;BME280;2962;51.312;7.378;2023-05-03T12:32:34;98429.06;;;19.69;75.39
5872;BME280;2962;51.312;7.378;2023-05-03T12:34:59;98428.53;;;19.19;70.62
5872;BME280;2962;51.312;7.378;2023-05-03T12:37:25;98434.25;;;18.33;79.63
5872;BME280;2962;51.312;7.378;2023-05-03T12:39:51;98429.81;;;18.96;74.04
5872;BME280;2962;51.312;7.378;2023-05-03T12:42:16;98427.94;;;18.47;79.94
5872;BME280;2962;51.312;7.378;2023-05-03T12:44:41;98422.34;;;18.86;70.79
5872;BME280;2962;51.312;7.378;2023-05-03T12:47:08;98423.09;;;18.90;78.36
5872;BME280;2962;51.312;7.378;2023-05-03T12:49:33;98414.97;;;20.05;67.05
5872;BME280;2962;51.312;7.378;2023-05-03T12:51:58;98422.06;;;19.43;67.95
5872;BME280;2962;51.312;7.378;2023-05-03T12:54:27;98411.03;;;19.43;68.72
5872;BME280;2962;51.312;7.378;2023-05-03T12:56:52;98413.72;;;19.54;66.91
5872;BME280;2962;51.312;7.378;2023-05-03T12:59:18;98407.03;;;19.51;67.68
5872;BME280;2962;51.312;7.378;2023-05-03T13:01:43;98417.25;;;20.14;64.35
5872;BME280;2962;51.312;7.378;2023-05-03T13:04:08;98418.19;;;19.96;68.40
5872;BME280;2962;51.312;7.378;2023-05-03T13:06:34;98414.91;;;20.57;67.93
5872;BME280;2962;51.312;7.378;2023-05-03T13:09:00;98404.47;;;21.37;63.06
5872;BME280;2962;51.312;7.378;2023-05-03T13:11:26;98402.56;;;21.61;69.19
5872;BME280;2962;51.312;7.378;2023-05-03T13:13:51;98395.31;;;21.67;57.14
5872;BME280;2962;51.312;7.378;2023-05-03T13:16:16;98394.31;;;21.27;57.60
5872;BME280;2962;51.312;7.378;2023-05-03T13:18:43;98389.97;;;20.16;59.18
5872;BME280;2962;51.312;7.378;2023-05-03T13:21:09;98394.72;;;20.60;66.70
5872;BME280;2962;51.312;7.378;2023-05-03T13:23:35;98386.19;;;20.78;69.02
5872;BME280;2962;51.312;7.378;2023-05-03T13:26:00;98374.72;;;21.68;62.31
5872;BME280;2962;51.312;7.378;2023-05-03T13:28:25;98377.72;;;21.23;59.40
5872;BME280;2962;51.312;7.378;2023-05-03T13:30:51;98379.16;;;21.62;55.01